sensor_id;sensor_type;location;lat;lon;timestamp;temperature;humidity
14798;DHT22;7490;63.708;20.368;2023-12-28T00:00:27;-6.80;99.90
14798;DHT22;7490;63.708;20.368;2023-12-28T00:02:53;-6.80;99.90
14798;DHT22;7490;63.708;20.368;2023-12-28T00:05:19;-6.90;99.90
14798;DHT22;7490;63.708;20.368;2023-12-28T00:07:44;-7.00;99.90
14798;DHT22;7490;63.708;20.368;2023-12-28T00:10:10;-7.00;99.90
14798;DHT22;7490;63.708;20.368;2023-12-28T00:12:36;-7.10;99.90
14798;DHT22;7490;63.708;20.368;2023-12-28T00:15:02;-7.10;99.90
14798;DHT22;7490;63.708;20.368;2023-12-28T00:17:27;-7.10;99.90
14798;DHT22;7490;63.708;20.368;2023-12-28T00:19:53;-7.20;99.90
14798;DHT22;7490;63.708;20.368;2023-12-28T00:22:18;-7.20;99.90
14798;DHT22;7490;63.708;20.368;2023-12-28T00:24:44;-7.20;99.90
14798;DHT22;7490;63.708;20.368;2023-12-28T00:27:10;-7.20;99.90
14798;DHT22;7490;63.708;20.368;2023-12-28T00:29:35;-7.20;99.90
14798;DHT22;7490;63.708;20.368;2023-12-28T00:32:05;-7.30;99.90
14798;DHT22;7490;63.708;20.368;2023-12-28T00:34:31;-7.30;99.90
14798;DHT22;7490;63.708;20.368;2023-12-28T00:36:56;-7.40;99.90
14798;DHT22;7490;63.708;20.368;2023-12-28T00:39:22;-7.40;99.90
14798;DHT22;7490;63.708;20.368;2023-12-28T00:41:48;-7.40;99.90
14798;DHT22;7490;63.708;20.368;2023-12-28T00:44:13;-7.40;99.90
14798;DHT22;7490;63.708;20.368;2023-12-28T00:46:39;-7.50;99.90
14798;DHT22;7490;63.708;20.368;2023-12-28T00:49:05;-7.50;99.90
14798;DHT22;7490;63.708;20.368;2023-12-28T00:51:30;-7.60;99.90
14798;DHT22;7490;63.708;20.368;2023-12-28T00:53:56;-7.60;99.90
14798;DHT22;7490;63.708;20.368;2023-12-28T00:56:21;-7.60;99.90
14798;DHT22;7490;63.708;20.368;2023-12-28T00:58:47;-7.60;99.90
14798;DHT22;7490;63.708;20.368;2023-12-28T01:01:13;-7.60;99.90
14798;DHT22;7490;63.708;20.368;2023-12-28T01:03:38;-7.60;99.90
14798;DHT22;7490;63.708;20.368;2023-12-28T01:06:05;-7.60;99.90
14798;DHT22;7490;63.708;20.368;2023-12-28T01:08:31;-7.60;99.90
14798;DHT22;7490;63.708;20.368;2023-12-28T01:10:59;-7.60;99.90
14798;DHT22;7490;63.708;20.368;2023-12-28T01:13:25;-7.60;99.90
14798;DHT22;7490;63.708;20.368;2023-12-28T01:15:51;-7.70;99.90
14798;DHT22;7490;63.708;20.368;2023-12-28T01:18:16;-7.70;99.90
14798;DHT22;7490;63.708;20.368;2023-12-28T01:20:42;-7.70;99.90
14798;DHT22;7490;63.708;20.368;2023-12-28T01:23:08;-7.80;99.90
14798;DHT22;7490;63.708;20.368;2023-12-28T01:25:33;-7.80;99.90
14798;DHT22;7490;63.708;20.368;2023-12-28T01:27:59;-7.80;99.90
14798;DHT22;7490;63.708;20.368;2023-12-28T01:30:25;-7.80;99.90
14798;DHT22;7490;63.708;20.368;2023-12-28T01:32:51;-7.80;99.90
14798;DHT22;7490;63.708;20.368;2023-12-28T01:35:17;-7.70;99.90
14798;DHT22;7490;63.708;20.368;2023-12-28T01:37:43;-7.80;99.90
14798;DHT22;7490;63.708;20.368;2023-12-28T01:40:09;-7.80;99.90
14798;DHT22;7490;63.708;20.368;2023-12-28T01:42:34;-7.70;99.90
14798;DHT22;7490;63.708;20.368;2023-12-28T01:45:01;-7.80;99.90
14798;DHT22;7490;63.708;20.368;2023-12-28T01:47:27;-7.80;99.90
14798;DHT22;7490;63.708;20.368;2023-12-28T01:49:53;-7.90;99.90
14798;DHT22;7490;63.708;20.368;2023-12-28T01:52:20;-7.90;99.90
14798;DHT22;7490;63.708;20.368;2023-12-28T01:54:45;-7.90;99.90
14798;DHT22;7490;63.708;20.368;2023-12-28T01:57:12;-8.00;99.90
14798;DHT22;7490;63.708;20.368;2023-12-28T01:59:39;-8.00;99.90
14798;DHT22;7490;63.708;20.368;2023-12-28T02:02:05;-8.00;99.90
14798;DHT22;7490;63.708;20.368;2023-12-28T02:04:31;-8.10;99.90
14798;DHT22;7490;63.708;20.368;2023-12-28T02:07:00;-8.10;99.90
14798;DHT22;7490;63.708;20.368;2023-12-28T02:09:25;-8.10;99.90
14798;DHT22;7490;63.708;20.368;2023-12-28T02:11:52;-8.10;99.90
14798;DHT22;7490;63.708;20.368;2023-12-28T02:14:18;-8.10;99.90
14798;DHT22;7490;63.708;20.368;2023-12-28T02:16:54;-8.10;99.90
14798;DHT22;7490;63.708;20.368;2023-12-28T02:19:43;-8.10;99.90
14798;DHT22;7490;63.708;20.368;2023-12-28T02:22:13;-8.10;99.90
14798;DHT22;7490;63.708;20.368;2023-12-28T02:25:09;-8.20;99.90
14798;DHT22;7490;63.708;20.368;2023-12-28T02:27:37;-8.20;99.90
14798;DHT22;7490;63.708;20.368;2023-12-28T02:30:05;-8.30;99.90
14798;DHT22;7490;63.708;20.368;2023-12-28T02:32:45;-8.30;99.90
14798;DHT22;7490;63.708;20.368;2023-12-28T02:35:42;-8.30;99.90
14798;DHT22;7490;63.708;20.368;2023-12-28T02:38:10;-8.30;99.90
14798;DHT22;7490;63.708;20.368;2023-12-28T02:40:38;-8.40;99.90
14798;DHT22;7490;63.708;20.368;2023-12-28T02:43:07;-8.40;99.90
14798;DHT22;7490;63.708;20.368;2023-12-28T02:45:34;-8.40;99.90
14798;DHT22;7490;63.708;20.368;2023-12-28T02:48:00;-8.40;99.90
14798;DHT22;7490;63.708;20.368;2023-12-28T02:50:26;-8.40;99.90
14798;DHT22;7490;63.708;20.368;2023-12-28T02:52:52;-8.40;99.90
14798;DHT22;7490;63.708;20.368;2023-12-28T02:55:18;-8.40;99.90
14798;DHT22;7490;63.708;20.368;2023-12-28T02:57:44;-8.50;99.90
14798;DHT22;7490;63.708;20.368;2023-12-28T03:00:10;-8.40;99.90
14798;DHT22;7490;63.708;20.368;2023-12-28T03:02:36;-8.50;99.90
14798;DHT22;7490;63.708;20.368;2023-12-28T03:05:06;-8.40;99.90
14798;DHT22;7490;63.708;20.368;2023-12-28T03:07:35;-8.40;99.90
14798;DHT22;7490;63.708;20.368;2023-12-28T03:10:02;-8.40;99.90
14798;DHT22;7490;63.708;20.368;2023-12-28T03:12:29;-8.40;99.90
14798;DHT22;7490;63.708;20.368;2023-12-28T03:14:55;-8.40;99.90
14798;DHT22;7490;63.708;20.368;2023-12-28T03:17:21;-8.50;99.90
14798;DHT22;7490;63.708;20.368;2023-12-28T03:19:46;-8.50;99.90
14798;DHT22;7490;63.708;20.368;2023-12-28T03:22:12;-8.50;99.90
14798;DHT22;7490;63.708;20.368;2023-12-28T03:24:38;-8.50;99.90
14798;DHT22;7490;63.708;20.368;2023-12-28T03:27:04;-8.60;99.90
14798;DHT22;7490;63.708;20.368;2023-12-28T03:29:30;-8.60;99.90
14798;DHT22;7490;63.708;20.368;2023-12-28T03:31:56;-8.60;99.90
14798;DHT22;7490;63.708;20.368;2023-12-28T03:34:22;-8.60;99.90
14798;DHT22;7490;63.708;20.368;2023-12-28T03:36:48;-8.70;99.90
14798;DHT22;7490;63.708;20.368;2023-12-28T03:39:14;-8.70;99.90
14798;DHT22;7490;63.708;20.368;2023-12-28T03:41:40;-8.70;99.90
14798;DHT22;7490;63.708;20.368;2023-12-28T03:44:06;-8.70;99.90
14798;DHT22;7490;63.708;20.368;2023-12-28T03:46:32;-8.70;99.90
14798;DHT22;7490;63.708;20.368;2023-12-28T03:48:57;-8.70;99.90
14798;DHT22;7490;63.708;20.368;2023-12-28T03:51:23;-8.80;99.90
14798;DHT22;7490;63.708;20.368;2023-12-28T03:53:48;-8.80;99.90
14798;DHT22;7490;63.708;20.368;2023-12-28T03:56:25;-8.80;99.90
14798;DHT22;7490;63.708;20.368;2023-12-28T03:58:51;-8.80;99.90
14798;DHT22;7490;63.708;20.368;2023-12-28T04:01:21;-8.90;99.90
14798;DHT22;7490;63.708;20.368;2023-12-28T04:03:48;-8.90;99.90
14798;DHT22;7490;63.708;20.368;2023-12-28T04:06:14;-8.90;99.90
14798;DHT22;7490;63.708;20.368;2023-12-28T04:08:41;-9.00;99.90
14798;DHT22;7490;63.708;20.368;2023-12-28T04:11:07;-9.00;99.90
14798;DHT22;7490;63.708;20.368;2023-12-28T04:13:32;-9.00;99.90
14798;DHT22;7490;63.708;20.368;2023-12-28T04:15:58;-9.10;99.90
14798;DHT22;7490;63.708;20.368;2023-12-28T04:18:24;-9.10;99.90
14798;DHT22;7490;63.708;20.368;2023-12-28T04:20:49;-9.10;99.90
14798;DHT22;7490;63.708;20.368;2023-12-28T04:23:15;-9.10;99.90
14798;DHT22;7490;63.708;20.368;2023-12-28T04:25:41;-9.20;99.90
14798;DHT22;7490;63.708;20.368;2023-12-28T04:28:07;-9.20;99.90
14798;DHT22;7490;63.708;20.368;2023-12-28T04:30:34;-9.20;99.90
14798;DHT22;7490;63.708;20.368;2023-12-28T04:33:00;-9.20;99.90
14798;DHT22;7490;63.708;20.368;2023-12-28T04:35:26;-9.20;99.90
14798;DHT22;7490;63.708;20.368;2023-12-28T04:37:52;-9.20;99.90
14798;DHT22;7490;63.708;20.368;2023-12-28T04:40:18;-9.30;99.90
14798;DHT22;7490;63.708;20.368;2023-12-28T04:42:44;-9.30;99.90
14798;DHT22;7490;63.708;20.368;2023-12-28T04:45:09;-9.40;99.90
14798;DHT22;7490;63.708;20.368;2023-12-28T04:47:38;-9.40;99.90
14798;DHT22;7490;63.708;20.368;2023-12-28T04:50:05;-9.50;99.90
14798;DHT22;7490;63.708;20.368;2023-12-28T04:52:31;-9.40;99.90
14798;DHT22;7490;63.708;20.368;2023-12-28T04:54:57;-9.50;99.90
14798;DHT22;7490;63.708;20.368;2023-12-28T04:57:22;-9.50;99.90
14798;DHT22;7490;63.708;20.368;2023-12-28T04:59:51;-9.50;99.90
14798;DHT22;7490;63.708;20.368;2023-12-28T05:02:16;-9.50;99.90
14798;DHT22;7490;63.708;20.368;2023-12-28T05:04:42;-9.60;99.90
14798;DHT22;7490;63.708;20.368;2023-12-28T05:07:08;-9.60;99.90
14798;DHT22;7490;63.708;20.368;2023-12-28T05:09:33;-9.60;99.90
14798;DHT22;7490;63.708;20.368;2023-12-28T05:11:59;-9.60;99.90
14798;DHT22;7490;63.708;20.368;2023-12-28T05:14:25;-9.60;99.90
14798;DHT22;7490;63.708;20.368;2023-12-28T05:16:51;-9.70;99.90
14798;DHT22;7490;63.708;20.368;2023-12-28T05:19:16;-9.70;99.90
14798;DHT22;7490;63.708;20.368;2023-12-28T05:21:42;-9.70;99.90
14798;DHT22;7490;63.708;20.368;2023-12-28T05:24:07;-9.70;99.90
14798;DHT22;7490;63.708;20.368;2023-12-28T05:26:33;-9.70;99.90
14798;DHT22;7490;63.708;20.368;2023-12-28T05:28:59;-9.70;99.90
14798;DHT22;7490;63.708;20.368;2023-12-28T05:31:24;-9.80;99.90
14798;DHT22;7490;63.708;20.368;2023-12-28T05:33:50;-9.70;99.90
14798;DHT22;7490;63.708;20.368;2023-12-28T05:36:16;-9.80;99.90
14798;DHT22;7490;63.708;20.368;2023-12-28T05:38:42;-9.70;99.90
14798;DHT22;7490;63.708;20.368;2023-12-28T05:41:09;-9.70;99.90
14798;DHT22;7490;63.708;20.368;2023-12-28T05:43:36;-9.70;99.90
14798;DHT22;7490;63.708;20.368;2023-12-28T05:46:01;-9.70;99.90
14798;DHT22;7490;63.708;20.368;2023-12-28T05:48:27;-9.70;99.90
14798;DHT22;7490;63.708;20.368;2023-12-28T05:50:53;-9.70;99.90
14798;DHT22;7490;63.708;20.368;2023-12-28T05:53:18;-9.80;99.90
14798;DHT22;7490;63.708;20.368;2023-12-28T05:55:44;-9.80;99.90
14798;DHT22;7490;63.708;20.368;2023-12-28T05:58:10;-9.80;99.90
14798;DHT22;7490;63.708;20.368;2023-12-28T06:00:36;-9.80;99.90
14798;DHT22;7490;63.708;20.368;2023-12-28T06:03:07;-9.80;99.90
14798;DHT22;7490;63.708;20.368;2023-12-28T06:05:34;-9.80;99.90
14798;DHT22;7490;63.708;20.368;2023-12-28T06:08:00;-9.90;99.90
14798;DHT22;7490;63.708;20.368;2023-12-28T06:10:25;-9.90;99.90
14798;DHT22;7490;63.708;20.368;2023-12-28T06:12:51;-9.90;99.90
14798;DHT22;7490;63.708;20.368;2023-12-28T06:15:16;-9.90;99.90
14798;DHT22;7490;63.708;20.368;2023-12-28T06:17:42;-9.90;99.90
14798;DHT22;7490;63.708;20.368;2023-12-28T06:20:08;-9.90;99.90
14798;DHT22;7490;63.708;20.368;2023-12-28T06:22:37;-9.90;99.90
14798;DHT22;7490;63.708;20.368;2023-12-28T06:25:03;-10.00;99.90
14798;DHT22;7490;63.708;20.368;2023-12-28T06:27:30;-10.00;99.90
14798;DHT22;7490;63.708;20.368;2023-12-28T06:29:55;-10.00;99.90
14798;DHT22;7490;63.708;20.368;2023-12-28T06:32:21;-10.10;99.90
14798;DHT22;7490;63.708;20.368;2023-12-28T06:34:47;-10.10;99.90
14798;DHT22;7490;63.708;20.368;2023-12-28T06:37:13;-10.20;99.90
14798;DHT22;7490;63.708;20.368;2023-12-28T06:39:39;-10.20;99.90
14798;DHT22;7490;63.708;20.368;2023-12-28T06:42:05;-10.20;99.90
14798;DHT22;7490;63.708;20.368;2023-12-28T06:44:31;-10.20;99.90
14798;DHT22;7490;63.708;20.368;2023-12-28T06:46:56;-10.30;99.90
14798;DHT22;7490;63.708;20.368;2023-12-28T06:49:23;-10.30;99.90
14798;DHT22;7490;63.708;20.368;2023-12-28T06:51:49;-10.40;99.90
14798;DHT22;7490;63.708;20.368;2023-12-28T06:54:14;-10.40;99.90
14798;DHT22;7490;63.708;20.368;2023-12-28T06:56:41;-10.50;99.90
14798;DHT22;7490;63.708;20.368;2023-12-28T06:59:07;-10.50;99.90
14798;DHT22;7490;63.708;20.368;2023-12-28T07:01:33;-10.60;99.90
14798;DHT22;7490;63.708;20.368;2023-12-28T07:03:58;-10.60;99.90
14798;DHT22;7490;63.708;20.368;2023-12-28T07:06:25;-10.60;99.90
14798;DHT22;7490;63.708;20.368;2023-12-28T07:08:50;-10.60;99.90
14798;DHT22;7490;63.708;20.368;2023-12-28T07:11:16;-10.70;99.90
14798;DHT22;7490;63.708;20.368;2023-12-28T07:13:42;-10.70;99.90
14798;DHT22;7490;63.708;20.368;2023-12-28T07:16:08;-10.80;99.90
14798;DHT22;7490;63.708;20.368;2023-12-28T07:18:33;-10.80;99.90
14798;DHT22;7490;63.708;20.368;2023-12-28T07:21:00;-10.90;99.90
14798;DHT22;7490;63.708;20.368;2023-12-28T07:23:26;-10.90;99.90
14798;DHT22;7490;63.708;20.368;2023-12-28T07:25:52;-11.00;99.90
14798;DHT22;7490;63.708;20.368;2023-12-28T07:28:18;-11.00;99.90
14798;DHT22;7490;63.708;20.368;2023-12-28T07:30:44;-11.10;99.90
14798;DHT22;7490;63.708;20.368;2023-12-28T07:33:09;-11.10;99.90
14798;DHT22;7490;63.708;20.368;2023-12-28T07:35:35;-11.20;99.90
14798;DHT22;7490;63.708;20.368;2023-12-28T07:38:01;-11.20;99.90
14798;DHT22;7490;63.708;20.368;2023-12-28T07:40:27;-11.30;99.90
14798;DHT22;7490;63.708;20.368;2023-12-28T07:42:53;-11.30;99.90
14798;DHT22;7490;63.708;20.368;2023-12-28T07:45:19;-11.40;99.90
14798;DHT22;7490;63.708;20.368;2023-12-28T07:47:49;-11.40;99.90
14798;DHT22;7490;63.708;20.368;2023-12-28T07:50:16;-11.40;99.90
14798;DHT22;7490;63.708;20.368;2023-12-28T07:52:42;-11.40;99.90
14798;DHT22;7490;63.708;20.368;2023-12-28T07:55:08;-11.40;99.90
14798;DHT22;7490;63.708;20.368;2023-12-28T07:57:34;-11.40;99.90
14798;DHT22;7490;63.708;20.368;2023-12-28T08:00:00;-11.40;99.90
14798;DHT22;7490;63.708;20.368;2023-12-28T08:02:26;-11.50;99.90
14798;DHT22;7490;63.708;20.368;2023-12-28T08:04:53;-11.50;99.90
14798;DHT22;7490;63.708;20.368;2023-12-28T08:07:18;-11.50;99.90
14798;DHT22;7490;63.708;20.368;2023-12-28T08:09:44;-11.50;99.90
14798;DHT22;7490;63.708;20.368;2023-12-28T08:12:10;-11.60;99.90
14798;DHT22;7490;63.708;20.368;2023-12-28T08:14:35;-11.60;99.90
14798;DHT22;7490;63.708;20.368;2023-12-28T08:17:01;-11.60;99.90
14798;DHT22;7490;63.708;20.368;2023-12-28T08:19:27;-11.70;99.90
14798;DHT22;7490;63.708;20.368;2023-12-28T08:21:53;-11.70;99.90
14798;DHT22;7490;63.708;20.368;2023-12-28T08:24:18;-11.80;99.90
14798;DHT22;7490;63.708;20.368;2023-12-28T08:26:44;-11.80;99.90
14798;DHT22;7490;63.708;20.368;2023-12-28T08:29:09;-11.90;99.90
14798;DHT22;7490;63.708;20.368;2023-12-28T08:31:35;-12.00;99.90
14798;DHT22;7490;63.708;20.368;2023-12-28T08:34:01;-12.00;99.90
14798;DHT22;7490;63.708;20.368;2023-12-28T08:36:26;-12.00;99.90
14798;DHT22;7490;63.708;20.368;2023-12-28T08:38:52;-12.00;99.90
14798;DHT22;7490;63.708;20.368;2023-12-28T08:41:22;-12.00;99.90
14798;DHT22;7490;63.708;20.368;2023-12-28T08:43:52;-12.00;99.90
14798;DHT22;7490;63.708;20.368;2023-12-28T08:46:20;-12.00;99.90
14798;DHT22;7490;63.708;20.368;2023-12-28T08:48:46;-12.00;99.90
14798;DHT22;7490;63.708;20.368;2023-12-28T08:51:11;-12.00;99.90
14798;DHT22;7490;63.708;20.368;2023-12-28T08:53:39;-12.00;99.90
14798;DHT22;7490;63.708;20.368;2023-12-28T08:56:25;-12.10;99.90
14798;DHT22;7490;63.708;20.368;2023-12-28T08:58:51;-12.00;99.90
14798;DHT22;7490;63.708;20.368;2023-12-28T09:01:22;-12.00;99.90
14798;DHT22;7490;63.708;20.368;2023-12-28T09:03:49;-12.00;99.90
14798;DHT22;7490;63.708;20.368;2023-12-28T09:06:15;-12.00;99.90
14798;DHT22;7490;63.708;20.368;2023-12-28T09:08:42;-12.00;99.90
14798;DHT22;7490;63.708;20.368;2023-12-28T09:11:13;-11.90;99.90
14798;DHT22;7490;63.708;20.368;2023-12-28T09:13:39;-11.90;99.90
14798;DHT22;7490;63.708;20.368;2023-12-28T09:16:06;-11.90;99.90
14798;DHT22;7490;63.708;20.368;2023-12-28T09:18:33;-11.80;99.90
14798;DHT22;7490;63.708;20.368;2023-12-28T09:20:58;-11.80;99.90
14798;DHT22;7490;63.708;20.368;2023-12-28T09:23:24;-11.80;99.90
14798;DHT22;7490;63.708;20.368;2023-12-28T09:25:50;-11.70;99.90
14798;DHT22;7490;63.708;20.368;2023-12-28T09:28:15;-11.70;99.90
14798;DHT22;7490;63.708;20.368;2023-12-28T09:30:41;-11.70;99.90
14798;DHT22;7490;63.708;20.368;2023-12-28T09:33:07;-11.70;99.90
14798;DHT22;7490;63.708;20.368;2023-12-28T09:35:33;-11.70;99.90
14798;DHT22;7490;63.708;20.368;2023-12-28T09:37:58;-11.70;99.90
14798;DHT22;7490;63.708;20.368;2023-12-28T09:40:24;-11.70;99.90
14798;DHT22;7490;63.708;20.368;2023-12-28T09:42:56;-11.70;99.90
14798;DHT22;7490;63.708;20.368;2023-12-28T09:45:22;-11.60;99.90
14798;DHT22;7490;63.708;20.368;2023-12-28T09:47:48;-11.70;99.90
14798;DHT22;7490;63.708;20.368;2023-12-28T09:50:17;-11.70;99.90
14798;DHT22;7490;63.708;20.368;2023-12-28T09:52:44;-11.70;99.90
14798;DHT22;7490;63.708;20.368;2023-12-28T09:55:09;-11.70;99.90
14798;DHT22;7490;63.708;20.368;2023-12-28T09:57:36;-11.70;99.90
14798;DHT22;7490;63.708;20.368;2023-12-28T10:00:02;-11.80;99.90
14798;DHT22;7490;63.708;20.368;2023-12-28T10:02:30;-11.80;99.90
14798;DHT22;7490;63.708;20.368;2023-12-28T10:04:55;-11.70;99.90
14798;DHT22;7490;63.708;20.368;2023-12-28T10:07:21;-11.70;99.90
14798;DHT22;7490;63.708;20.368;2023-12-28T10:09:47;-11.60;99.90
14798;DHT22;7490;63.708;20.368;2023-12-28T10:12:12;-11.60;99.90
14798;DHT22;7490;63.708;20.368;2023-12-28T10:14:39;-11.50;99.90
14798;DHT22;7490;63.708;20.368;2023-12-28T10:17:05;-11.20;99.90
14798;DHT22;7490;63.708;20.368;2023-12-28T10:19:30;-11.20;99.90
14798;DHT22;7490;63.708;20.368;2023-12-28T10:21:56;-11.10;99.90
14798;DHT22;7490;63.708;20.368;2023-12-28T10:24:22;-11.10;99.90
14798;DHT22;7490;63.708;20.368;2023-12-28T10:26:47;-11.00;99.90
14798;DHT22;7490;63.708;20.368;2023-12-28T10:29:13;-11.00;99.90
14798;DHT22;7490;63.708;20.368;2023-12-28T10:31:42;-10.90;99.90
14798;DHT22;7490;63.708;20.368;2023-12-28T10:34:08;-10.80;99.90
14798;DHT22;7490;63.708;20.368;2023-12-28T10:36:34;-10.70;99.90
14798;DHT22;7490;63.708;20.368;2023-12-28T10:39:05;-10.70;99.90
14798;DHT22;7490;63.708;20.368;2023-12-28T10:41:32;-10.60;99.90
14798;DHT22;7490;63.708;20.368;2023-12-28T10:44:05;-10.60;99.90
14798;DHT22;7490;63.708;20.368;2023-12-28T10:46:32;-10.50;99.90
14798;DHT22;7490;63.708;20.368;2023-12-28T10:49:12;-10.50;99.90
14798;DHT22;7490;63.708;20.368;2023-12-28T10:51:41;-10.40;99.90
14798;DHT22;7490;63.708;20.368;2023-12-28T10:57:06;-10.40;99.90
14798;DHT22;7490;63.708;20.368;2023-12-28T11:02:09;-10.30;99.90
14798;DHT22;7490;63.708;20.368;2023-12-28T11:04:46;-10.30;99.90
14798;DHT22;7490;63.708;20.368;2023-12-28T11:07:15;-10.30;99.90
14798;DHT22;7490;63.708;20.368;2023-12-28T11:09:42;-10.30;99.90
14798;DHT22;7490;63.708;20.368;2023-12-28T11:12:09;-10.30;99.90
14798;DHT22;7490;63.708;20.368;2023-12-28T11:14:38;-10.20;99.90
14798;DHT22;7490;63.708;20.368;2023-12-28T11:17:04;-10.20;99.90
14798;DHT22;7490;63.708;20.368;2023-12-28T11:19:32;-10.20;99.90
14798;DHT22;7490;63.708;20.368;2023-12-28T11:21:59;-10.10;99.90
14798;DHT22;7490;63.708;20.368;2023-12-28T11:24:29;-10.10;99.90
14798;DHT22;7490;63.708;20.368;2023-12-28T11:26:56;-10.00;99.90
14798;DHT22;7490;63.708;20.368;2023-12-28T11:29:23;-10.00;99.90
14798;DHT22;7490;63.708;20.368;2023-12-28T11:31:55;-9.90;99.90
14798;DHT22;7490;63.708;20.368;2023-12-28T11:34:28;-9.90;99.90
14798;DHT22;7490;63.708;20.368;2023-12-28T11:36:56;-9.90;99.90
14798;DHT22;7490;63.708;20.368;2023-12-28T11:39:32;-9.90;99.90
14798;DHT22;7490;63.708;20.368;2023-12-28T11:42:05;-9.90;99.90
14798;DHT22;7490;63.708;20.368;2023-12-28T11:44:32;-9.80;99.90
14798;DHT22;7490;63.708;20.368;2023-12-28T11:47:11;-9.80;99.90
14798;DHT22;7490;63.708;20.368;2023-12-28T11:49:37;-9.80;99.90
14798;DHT22;7490;63.708;20.368;2023-12-28T11:52:05;-9.80;99.90
14798;DHT22;7490;63.708;20.368;2023-12-28T11:54:31;-9.80;99.90
14798;DHT22;7490;63.708;20.368;2023-12-28T11:56:57;-9.80;99.90
14798;DHT22;7490;63.708;20.368;2023-12-28T11:59:23;-9.70;99.90
14798;DHT22;7490;63.708;20.368;2023-12-28T12:01:54;-9.70;99.90
14798;DHT22;7490;63.708;20.368;2023-12-28T12:04:20;-9.70;99.90
14798;DHT22;7490;63.708;20.368;2023-12-28T12:06:47;-9.70;99.90
14798;DHT22;7490;63.708;20.368;2023-12-28T12:09:16;-9.70;99.90
14798;DHT22;7490;63.708;20.368;2023-12-28T12:11:43;-9.70;99.90
14798;DHT22;7490;63.708;20.368;2023-12-28T12:14:09;-9.70;99.90
14798;DHT22;7490;63.708;20.368;2023-12-28T12:16:36;-9.70;99.90
14798;DHT22;7490;63.708;20.368;2023-12-28T12:19:05;-9.70;99.90
14798;DHT22;7490;63.708;20.368;2023-12-28T12:21:34;-9.70;99.90
14798;DHT22;7490;63.708;20.368;2023-12-28T12:24:00;-9.80;99.90
14798;DHT22;7490;63.708;20.368;2023-12-28T12:26:30;-9.70;99.90
14798;DHT22;7490;63.708;20.368;2023-12-28T12:28:56;-9.70;99.90
14798;DHT22;7490;63.708;20.368;2023-12-28T12:31:23;-9.70;99.90
14798;DHT22;7490;63.708;20.368;2023-12-28T12:33:49;-9.70;99.90
14798;DHT22;7490;63.708;20.368;2023-12-28T12:36:15;-9.70;99.90
14798;DHT22;7490;63.708;20.368;2023-12-28T12:38:41;-9.60;99.90
14798;DHT22;7490;63.708;20.368;2023-12-28T12:41:07;-9.60;99.90
14798;DHT22;7490;63.708;20.368;2023-12-28T12:43:35;-9.60;99.90
14798;DHT22;7490;63.708;20.368;2023-12-28T12:46:01;-9.50;99.90
14798;DHT22;7490;63.708;20.368;2023-12-28T12:48:27;-9.50;99.90
14798;DHT22;7490;63.708;20.368;2023-12-28T12:50:53;-9.50;99.90
14798;DHT22;7490;63.708;20.368;2023-12-28T12:53:19;-9.40;99.90
14798;DHT22;7490;63.708;20.368;2023-12-28T12:55:44;-9.40;99.90
14798;DHT22;7490;63.708;20.368;2023-12-28T12:58:12;-9.30;99.90
14798;DHT22;7490;63.708;20.368;2023-12-28T13:00:39;-9.20;99.90
14798;DHT22;7490;63.708;20.368;2023-12-28T13:03:08;-9.10;99.90
14798;DHT22;7490;63.708;20.368;2023-12-28T13:05:35;-9.10;99.90
14798;DHT22;7490;63.708;20.368;2023-12-28T13:08:03;-9.10;99.90
14798;DHT22;7490;63.708;20.368;2023-12-28T13:10:30;-9.10;99.90
14798;DHT22;7490;63.708;20.368;2023-12-28T13:12:55;-9.00;99.90
14798;DHT22;7490;63.708;20.368;2023-12-28T13:15:21;-9.00;99.90
14798;DHT22;7490;63.708;20.368;2023-12-28T13:17:47;-9.00;99.90
14798;DHT22;7490;63.708;20.368;2023-12-28T13:20:12;-9.10;99.90
14798;DHT22;7490;63.708;20.368;2023-12-28T13:22:38;-9.00;99.90
14798;DHT22;7490;63.708;20.368;2023-12-28T13:25:04;-9.00;99.90
14798;DHT22;7490;63.708;20.368;2023-12-28T13:27:30;-9.00;99.90
14798;DHT22;7490;63.708;20.368;2023-12-28T13:29:56;-8.90;99.90
14798;DHT22;7490;63.708;20.368;2023-12-28T13:32:22;-8.80;99.90
14798;DHT22;7490;63.708;20.368;2023-12-28T13:34:49;-8.80;99.90
14798;DHT22;7490;63.708;20.368;2023-12-28T13:37:16;-8.70;99.90
14798;DHT22;7490;63.708;20.368;2023-12-28T13:39:42;-8.70;99.90
14798;DHT22;7490;63.708;20.368;2023-12-28T13:42:08;-8.70;99.90
14798;DHT22;7490;63.708;20.368;2023-12-28T13:44:34;-8.70;99.90
14798;DHT22;7490;63.708;20.368;2023-12-28T13:47:01;-8.70;99.90
14798;DHT22;7490;63.708;20.368;2023-12-28T13:49:27;-8.60;99.90
14798;DHT22;7490;63.708;20.368;2023-12-28T13:51:52;-8.60;99.90
14798;DHT22;7490;63.708;20.368;2023-12-28T13:54:18;-8.50;99.90
14798;DHT22;7490;63.708;20.368;2023-12-28T13:56:47;-8.50;99.90
14798;DHT22;7490;63.708;20.368;2023-12-28T13:59:13;-8.40;99.90
14798;DHT22;7490;63.708;20.368;2023-12-28T14:01:40;-8.40;99.90
14798;DHT22;7490;63.708;20.368;2023-12-28T14:04:05;-8.40;99.90
14798;DHT22;7490;63.708;20.368;2023-12-28T14:06:32;-8.40;99.90
14798;DHT22;7490;63.708;20.368;2023-12-28T14:08:57;-8.40;99.90
14798;DHT22;7490;63.708;20.368;2023-12-28T14:11:26;-8.30;99.90
14798;DHT22;7490;63.708;20.368;2023-12-28T14:13:51;-8.30;99.90
14798;DHT22;7490;63.708;20.368;2023-12-28T14:16:17;-8.30;99.90
14798;DHT22;7490;63.708;20.368;2023-12-28T14:18:43;-8.20;99.90
14798;DHT22;7490;63.708;20.368;2023-12-28T14:21:09;-8.20;99.90
14798;DHT22;7490;63.708;20.368;2023-12-28T14:23:35;-8.20;99.90
14798;DHT22;7490;63.708;20.368;2023-12-28T14:26:21;-8.20;99.90
14798;DHT22;7490;63.708;20.368;2023-12-28T14:28:47;-8.10;99.90
14798;DHT22;7490;63.708;20.368;2023-12-28T14:31:13;-8.10;99.90
14798;DHT22;7490;63.708;20.368;2023-12-28T14:33:39;-8.10;99.90
14798;DHT22;7490;63.708;20.368;2023-12-28T14:36:33;-8.10;99.90
14798;DHT22;7490;63.708;20.368;2023-12-28T14:39:01;-8.10;99.90
14798;DHT22;7490;63.708;20.368;2023-12-28T14:41:27;-8.00;99.90
14798;DHT22;7490;63.708;20.368;2023-12-28T14:43:55;-8.00;99.90
14798;DHT22;7490;63.708;20.368;2023-12-28T14:46:21;-8.00;99.90
14798;DHT22;7490;63.708;20.368;2023-12-28T14:48:47;-7.90;99.90
14798;DHT22;7490;63.708;20.368;2023-12-28T14:51:13;-7.90;99.90
14798;DHT22;7490;63.708;20.368;2023-12-28T14:53:39;-7.90;99.90
14798;DHT22;7490;63.708;20.368;2023-12-28T14:56:04;-7.80;99.90
14798;DHT22;7490;63.708;20.368;2023-12-28T14:58:30;-7.80;99.90
14798;DHT22;7490;63.708;20.368;2023-12-28T15:00:56;-7.80;99.90
14798;DHT22;7490;63.708;20.368;2023-12-28T15:03:22;-7.70;99.90
14798;DHT22;7490;63.708;20.368;2023-12-28T15:05:48;-7.70;99.90
14798;DHT22;7490;63.708;20.368;2023-12-28T15:08:13;-7.70;99.90
14798;DHT22;7490;63.708;20.368;2023-12-28T15:10:39;-7.70;99.90
14798;DHT22;7490;63.708;20.368;2023-12-28T15:13:05;-7.70;99.90
14798;DHT22;7490;63.708;20.368;2023-12-28T15:15:32;-7.70;99.90
14798;DHT22;7490;63.708;20.368;2023-12-28T15:17:58;-7.70;99.90
14798;DHT22;7490;63.708;20.368;2023-12-28T15:20:24;-7.80;99.90
14798;DHT22;7490;63.708;20.368;2023-12-28T15:22:50;-7.90;99.90
14798;DHT22;7490;63.708;20.368;2023-12-28T15:25:15;-8.00;99.90
14798;DHT22;7490;63.708;20.368;2023-12-28T15:27:41;-8.00;99.90